Bristol, NH (03222)

05:58 AM EDT del 29 Agosto 2014 (GMT -0400)
Bristol Village | Change Station
CLOSE
Current Station
Stazione meteo personale
Location: Bristol, NH
Altitudine: 515 ft
Stazioni meteo nelle vicinanze

Alt. 515 ft 43.59 °N, 71.74 °W | Updated 5 seconds ago

Sereno
Sereno
51.4 °F
Sembra 51.4 °F
N
0.0
Vento Variabile Vento da ONO
Gusts 2.0 mph

Oggi
Massima -- | Minima -- °F
--% Possibilità di precip.
Ieri
Massima -- | Minima -- °F
Precip. -- in
6:07 AM 7:27 PM
Luna crescente, 13% visible
Pressione 30.09 in
Visibilità 10.0 miglia
Nuvole Sereno
Punto di rugiada 47 °F
Umidità 86%
Piovosità 0.00 in
Spessore del manto nevoso Non disponibile.
Raggi UV 0.0 fuori da 12
Polline 7.80 fuori da 12
Ozono Buono
Flu Activity Non disponibile.
METAR K1P1 290955Z AUTO 29004KT 10SM CLR 13/12 A3009 RMK AO2 T01310124

More Conditions Fewer Conditions

Pressione 30.09 in
Visibilità 10.0 miglia
Nuvole Sereno
Punto di rugiada 47 °F
Umidità 86%
Piovosità 0.00 in
Spessore del manto nevoso Non disponibile.
Raggi UV 0.0 fuori da 12
Polline 7.80 fuori da 12
Ozono Buono
Flu Activity Non disponibile.
METAR K1P1 290955Z AUTO 29004KT 10SM CLR 13/12 A3009 RMK AO2 T01310124

More Conditions Fewer Conditions

10-Day Weather Forecast

Almanac

Astronomia

Aug. 29, 2014 Alba Tramonto
Ora attuale 06:07 EDT 19:27 EDT
Crepuscolo civile 05:37 EDT 19:57 EDT
Crepuscolo nautico 05:01 EDT 20:32 EDT
Crepuscolo astronomico 04:23 EDT 21:10 EDT
Luna 10:02 EDT 21:14 EDT
Estensione della luce visibile 14h 19m
Lunghezza del giorno
13h 20m
Tomorrow will be 2m 51s shorter.
Luna crescente, 13% of the Moon is Illuminated
Oggi
Luna crescente
Set 2
Primo quarto
Set 8
Luna piena
Set 15
Ultimo quarto
Set 24
Nuovo

Gli estremi di oggi

State Highs State Lows

Community

WunderPhotos

Upload Photos

1,748,207 foto caricate!

Nearby

Qualità dell'aria

  Qualità dell'aria Indice AQ Inquinante
Ieri Buono
OZONE
Attuale Buono
OZONE
Venerdì Buono
PM2.5
Venerdì Buono
OZONE

Profondità neve

Stazione Profondità Altitudine
Non sono state evidenziate nuove nevicate

Attività sismica

Città  Distanza Mag. Data & Ora
Non sono state riportate attività sismiche nelle vicinanze.
Minimo Magnitudo Mostrato è 2.5.

Temperature delle acque costiere

Località Temperatura
Nessun dato dalle stazioni

Stazioni meteo nelle vicinanze